createdAt,value
2022-08-19T00:01:49.647Z,9.02
2022-08-19T00:04:23.648Z,8.50
2022-08-19T00:06:50.072Z,10.00
2022-08-19T00:09:18.192Z,8.25
2022-08-19T00:11:45.563Z,8.43
2022-08-19T00:14:15.069Z,8.77
2022-08-19T00:16:43.008Z,8.60
2022-08-19T00:19:10.195Z,7.75
2022-08-19T00:21:36.694Z,7.95
2022-08-19T00:24:03.271Z,8.43
2022-08-19T00:26:29.657Z,8.27
2022-08-19T00:28:56.455Z,9.30
2022-08-19T00:31:23.415Z,8.85
2022-08-19T00:33:49.748Z,8.05
2022-08-19T00:36:16.087Z,8.68
2022-08-19T00:38:42.457Z,8.27
2022-08-19T00:41:09.323Z,8.20
2022-08-19T00:43:35.896Z,7.82
2022-08-19T00:46:02.229Z,7.85
2022-08-19T00:48:28.586Z,8.18
2022-08-19T00:50:55.563Z,8.35
2022-08-19T00:53:26.933Z,8.10
2022-08-19T00:55:56.123Z,8.57
2022-08-19T00:58:27.113Z,8.70
2022-08-19T01:00:53.484Z,8.85
2022-08-19T01:03:21.411Z,9.25
2022-08-19T01:05:48.755Z,9.48
2022-08-19T01:08:18.053Z,9.27
2022-08-19T01:10:49.453Z,9.68
2022-08-19T01:13:18.310Z,9.23
2022-08-19T01:15:50.839Z,10.20
2022-08-19T01:18:19.541Z,7.93
2022-08-19T01:20:46.567Z,8.77
2022-08-19T01:23:14.741Z,10.32
2022-08-19T01:25:52.779Z,9.52
2022-08-19T01:28:34.300Z,9.13
2022-08-19T01:31:09.324Z,8.90
2022-08-19T01:33:35.802Z,9.52
2022-08-19T01:36:06.744Z,9.90
2022-08-19T01:38:44.314Z,9.80
2022-08-19T01:41:12.645Z,9.82
2022-08-19T01:43:38.990Z,10.25
2022-08-19T01:46:25.738Z,9.75
2022-08-19T01:48:52.112Z,11.25
2022-08-19T01:51:18.721Z,10.68
2022-08-19T01:53:49.121Z,10.13
2022-08-19T01:56:16.558Z,10.52
2022-08-19T01:58:50.528Z,10.63
2022-08-19T02:01:17.652Z,11.07
2022-08-19T02:03:43.999Z,9.90
2022-08-19T02:06:10.383Z,9.60
2022-08-19T02:08:40.199Z,9.13
2022-08-19T02:11:07.513Z,10.25
2022-08-19T02:13:35.353Z,9.45
2022-08-19T02:16:01.698Z,9.15
2022-08-19T02:18:30.928Z,9.80
2022-08-19T02:20:57.404Z,9.07
2022-08-19T02:23:23.983Z,9.73
2022-08-19T02:25:52.350Z,9.80
2022-08-19T02:28:19.219Z,10.27
2022-08-19T02:30:47.167Z,9.40
2022-08-19T02:33:13.524Z,9.65
2022-08-19T02:35:43.512Z,10.07
2022-08-19T02:38:10.029Z,8.85
2022-08-19T02:40:36.678Z,9.32
2022-08-19T02:43:05.373Z,9.77
2022-08-19T02:45:37.610Z,9.00
2022-08-19T02:48:21.097Z,9.35
2022-08-19T02:50:51.971Z,8.93
2022-08-19T02:53:19.976Z,9.80
2022-08-19T02:55:47.415Z,8.25
2022-08-19T02:58:15.450Z,8.43
2022-08-19T03:00:44.407Z,8.45
2022-08-19T03:03:10.919Z,9.25
2022-08-19T03:05:48.323Z,8.05
2022-08-19T03:08:24.115Z,8.73
2022-08-19T03:10:50.440Z,8.77
2022-08-19T03:13:18.449Z,7.95
2022-08-19T03:15:47.468Z,8.05
2022-08-19T03:18:14.832Z,7.93
2022-08-19T03:20:47.836Z,9.20
2022-08-19T03:23:15.700Z,8.50
2022-08-19T03:25:44.787Z,8.57
2022-08-19T03:28:12.699Z,8.02
2022-08-19T03:30:40.196Z,8.65
2022-08-19T03:33:10.798Z,7.78
2022-08-19T03:35:44.377Z,8.27
2022-08-19T03:38:10.705Z,8.48
2022-08-19T03:40:37.886Z,8.13
2022-08-19T03:43:04.349Z,8.07
2022-08-19T03:45:30.759Z,8.38
2022-08-19T03:47:57.158Z,8.63
2022-08-19T03:50:24.824Z,8.15
2022-08-19T03:52:52.083Z,7.95
2022-08-19T03:55:19.640Z,7.75
2022-08-19T03:57:46.031Z,7.78
2022-08-19T04:00:13.994Z,7.78
2022-08-19T04:02:42.060Z,8.15
2022-08-19T04:05:08.538Z,9.30
2022-08-19T04:07:35.004Z,8.57
2022-08-19T04:10:01.325Z,8.20
2022-08-19T04:12:27.666Z,7.45
2022-08-19T04:14:53.989Z,8.05
2022-08-19T04:17:20.348Z,8.70
2022-08-19T04:19:46.791Z,9.60
2022-08-19T04:22:13.126Z,9.70
2022-08-19T04:24:39.475Z,8.38
2022-08-19T04:27:06.396Z,8.77
2022-08-19T04:29:33.176Z,8.98
2022-08-19T04:32:00.227Z,8.57
2022-08-19T04:34:35.553Z,8.48
2022-08-19T04:37:01.899Z,9.05
2022-08-19T04:39:31.170Z,8.90
2022-08-19T04:41:57.603Z,9.05
2022-08-19T04:44:24.405Z,8.50
2022-08-19T04:46:52.045Z,7.18
2022-08-19T04:49:21.368Z,7.15
2022-08-19T04:51:48.058Z,7.75
2022-08-19T04:54:15.936Z,8.75
2022-08-19T04:57:00.202Z,8.98
2022-08-19T04:59:26.615Z,7.55
2022-08-19T05:01:52.949Z,8.15
2022-08-19T05:04:21.435Z,7.55
2022-08-19T05:06:49.415Z,8.95
2022-08-19T05:09:16.755Z,9.43
2022-08-19T05:11:43.374Z,7.95
2022-08-19T05:14:10.381Z,8.48
2022-08-19T05:16:36.689Z,9.43
2022-08-19T05:19:03.160Z,8.90
2022-08-19T05:21:30.775Z,8.43
2022-08-19T05:23:57.462Z,7.75
2022-08-19T05:26:25.137Z,8.73
2022-08-19T05:28:54.784Z,8.93
2022-08-19T05:31:22.573Z,8.90
2022-08-19T05:33:49.015Z,9.32
2022-08-19T05:36:15.356Z,10.10
2022-08-19T05:38:41.677Z,8.95
2022-08-19T05:41:10.183Z,9.13
2022-08-19T05:43:37.712Z,9.30
2022-08-19T05:46:08.316Z,10.02
2022-08-19T05:48:36.020Z,9.68
2022-08-19T05:51:06.554Z,10.23
2022-08-19T05:53:33.735Z,11.75
2022-08-19T05:56:06.194Z,10.60
2022-08-19T05:58:32.524Z,11.83
2022-08-19T06:00:58.877Z,11.63
2022-08-19T06:03:25.224Z,12.13
2022-08-19T06:05:52.293Z,11.85
2022-08-19T06:08:19.073Z,12.65
2022-08-19T06:10:45.419Z,11.57
2022-08-19T06:13:11.721Z,10.07
2022-08-19T06:15:38.039Z,14.70
2022-08-19T06:18:04.361Z,12.32
2022-08-19T06:20:54.642Z,13.00
2022-08-19T06:23:17.091Z,14.05
2022-08-19T06:25:44.055Z,14.57
2022-08-19T06:28:14.984Z,14.10
2022-08-19T06:30:41.930Z,14.65
2022-08-19T06:33:08.321Z,14.43
2022-08-19T06:35:40.719Z,13.13
2022-08-19T06:38:07.343Z,14.60
2022-08-19T06:40:33.789Z,12.80
2022-08-19T06:43:00.687Z,12.07
2022-08-19T06:45:35.515Z,12.90
2022-08-19T06:48:03.241Z,13.63
2022-08-19T06:50:29.854Z,12.05
2022-08-19T06:52:56.286Z,12.82
2022-08-19T06:55:23.004Z,12.77
2022-08-19T06:57:50.583Z,13.52
2022-08-19T07:00:17.319Z,12.70
2022-08-19T07:02:48.240Z,12.18
2022-08-19T07:05:22.572Z,13.18
2022-08-19T07:07:48.919Z,11.02
2022-08-19T07:10:17.576Z,12.88
2022-08-19T07:12:43.917Z,12.32
2022-08-19T07:15:11.234Z,12.63
2022-08-19T07:17:39.135Z,13.02
2022-08-19T07:20:09.701Z,13.00
2022-08-19T07:22:38.174Z,13.95
2022-08-19T07:25:06.983Z,14.27
2022-08-19T07:27:33.607Z,13.32
2022-08-19T07:30:00.492Z,14.55
2022-08-19T07:32:26.860Z,13.02
2022-08-19T07:34:53.332Z,15.02
2022-08-19T07:37:19.670Z,15.63
2022-08-19T07:39:46.113Z,15.27
2022-08-19T07:42:13.438Z,16.35
2022-08-19T07:47:07.469Z,18.33
2022-08-19T07:49:53.947Z,20.42
2022-08-19T07:52:20.457Z,18.38
2022-08-19T07:54:46.765Z,17.95
2022-08-19T07:57:13.097Z,16.80
2022-08-19T07:59:39.418Z,17.55
2022-08-19T08:02:06.331Z,18.25
2022-08-19T08:04:32.790Z,17.00
2022-08-19T08:06:59.135Z,16.70
2022-08-19T08:09:29.715Z,17.10
2022-08-19T08:12:32.903Z,17.67
2022-08-19T08:14:56.446Z,14.95
2022-08-19T08:17:48.687Z,15.57
2022-08-19T08:20:11.899Z,14.95
2022-08-19T08:22:43.144Z,14.15
2022-08-19T08:25:18.521Z,12.23
2022-08-19T08:27:47.903Z,14.63
2022-08-19T08:30:24.052Z,12.60
2022-08-19T08:32:51.971Z,12.13
2022-08-19T08:35:21.603Z,12.30
2022-08-19T08:37:51.209Z,12.60
2022-08-19T08:40:39.457Z,12.07
2022-08-19T08:43:27.730Z,12.23
2022-08-19T08:46:06.429Z,11.67
2022-08-19T08:48:45.899Z,11.13
2022-08-19T08:51:20.401Z,10.57
2022-08-19T08:53:50.008Z,10.23
2022-08-19T08:56:22.586Z,9.52
2022-08-19T08:59:00.196Z,10.05
2022-08-19T09:01:29.061Z,10.70
2022-08-19T09:03:57.541Z,10.27
2022-08-19T09:06:51.110Z,8.93
2022-08-19T09:09:23.206Z,8.90
2022-08-19T09:12:08.577Z,8.40
2022-08-19T09:14:58.895Z,8.60
2022-08-19T09:17:29.350Z,8.50
2022-08-19T09:20:09.622Z,9.00
2022-08-19T09:22:38.039Z,8.10
2022-08-19T09:25:05.588Z,7.95
2022-08-19T09:27:42.185Z,8.13
2022-08-19T09:30:18.221Z,8.80
2022-08-19T09:32:45.809Z,8.23
2022-08-19T09:35:13.929Z,8.73
2022-08-19T09:37:40.954Z,9.57
2022-08-19T09:40:08.221Z,8.60
2022-08-19T09:42:35.780Z,8.43
2022-08-19T09:45:04.955Z,8.20
2022-08-19T09:47:31.562Z,8.40
2022-08-19T09:49:58.113Z,8.13
2022-08-19T09:52:24.964Z,7.95
2022-08-19T09:54:53.676Z,7.28
2022-08-19T09:57:20.016Z,7.40
2022-08-19T09:59:46.427Z,6.93
2022-08-19T10:02:12.784Z,7.15
2022-08-19T10:04:39.103Z,7.10
2022-08-19T10:07:06.749Z,6.75
2022-08-19T10:09:34.559Z,6.53
2022-08-19T10:12:04.145Z,7.70
2022-08-19T10:14:31.383Z,7.40
2022-08-19T10:16:59.291Z,6.80
2022-08-19T10:19:26.382Z,6.60
2022-08-19T10:22:00.145Z,7.35
2022-08-19T10:24:27.461Z,6.93
2022-08-19T10:26:57.227Z,6.60
2022-08-19T10:29:32.544Z,6.47
2022-08-19T10:32:02.447Z,6.70
2022-08-19T10:34:30.480Z,6.18
2022-08-19T10:37:01.142Z,6.03
2022-08-19T10:39:30.455Z,5.70
2022-08-19T10:41:57.158Z,6.13
2022-08-19T10:44:23.888Z,6.32
2022-08-19T10:46:50.608Z,6.32
2022-08-19T10:49:17.115Z,5.63
2022-08-19T10:51:47.929Z,6.05
2022-08-19T10:54:15.944Z,5.45
2022-08-19T10:56:42.364Z,5.10
2022-08-19T10:59:08.679Z,5.95
2022-08-19T11:01:35.884Z,5.50
2022-08-19T11:04:04.096Z,5.10
2022-08-19T11:06:32.998Z,5.68
2022-08-19T11:08:59.443Z,6.00
2022-08-19T11:11:25.826Z,5.10
2022-08-19T11:13:52.250Z,5.07
2022-08-19T11:16:22.737Z,5.20
2022-08-19T11:18:52.285Z,4.85
2022-08-19T11:21:28.281Z,4.75
2022-08-19T11:23:57.606Z,5.03
2022-08-19T11:26:24.858Z,4.80
2022-08-19T11:28:51.400Z,4.50
2022-08-19T11:31:20.030Z,5.18
2022-08-19T11:33:47.865Z,4.82
2022-08-19T11:36:15.229Z,4.30
2022-08-19T11:38:42.343Z,3.97
2022-08-19T11:41:09.271Z,4.15
2022-08-19T11:43:37.656Z,3.75
2022-08-19T11:46:06.420Z,3.67
2022-08-19T11:48:32.828Z,4.13
2022-08-19T11:50:59.301Z,4.00
2022-08-19T11:53:25.939Z,4.40
2022-08-19T11:55:54.843Z,3.92
2022-08-19T11:58:21.197Z,3.90
2022-08-19T12:00:50.069Z,3.90
2022-08-19T12:03:16.545Z,5.43
2022-08-19T12:05:42.867Z,4.43
2022-08-19T12:08:09.619Z,3.90
2022-08-19T12:10:37.043Z,4.47
2022-08-19T12:13:03.616Z,3.65
2022-08-19T12:15:29.936Z,3.70
2022-08-19T12:18:04.905Z,3.60
2022-08-19T12:20:31.866Z,3.35
2022-08-19T12:23:01.979Z,3.30
2022-08-19T12:25:28.349Z,3.70
2022-08-19T12:27:57.676Z,3.45
2022-08-19T12:30:24.499Z,3.72
2022-08-19T12:32:51.155Z,3.40
2022-08-19T12:35:18.766Z,3.67
2022-08-19T12:37:45.126Z,3.72
2022-08-19T12:40:22.976Z,3.42
2022-08-19T12:42:49.440Z,4.53
2022-08-19T12:45:15.780Z,4.32
2022-08-19T12:47:53.758Z,3.97
2022-08-19T12:50:21.596Z,3.67
2022-08-19T12:52:48.823Z,3.95
2022-08-19T12:55:15.260Z,3.80
2022-08-19T12:57:41.776Z,4.43
2022-08-19T13:00:12.637Z,3.72
2022-08-19T13:02:40.437Z,3.58
2022-08-19T13:05:12.840Z,3.50
2022-08-19T13:07:40.870Z,3.00
2022-08-19T13:10:10.293Z,2.92
2022-08-19T13:12:36.753Z,2.92
2022-08-19T13:15:03.673Z,3.00
2022-08-19T13:17:38.928Z,3.00
2022-08-19T13:20:06.173Z,3.20
2022-08-19T13:22:32.512Z,3.40
2022-08-19T13:24:59.079Z,3.80
2022-08-19T13:27:25.411Z,3.17
2022-08-19T13:29:51.707Z,3.67
2022-08-19T13:32:18.571Z,3.70
2022-08-19T13:34:45.260Z,2.88
2022-08-19T13:37:11.579Z,3.30
2022-08-19T13:39:37.962Z,3.20
2022-08-19T13:42:04.903Z,3.83
2022-08-19T13:44:31.399Z,3.00
2022-08-19T13:47:03.365Z,2.92
2022-08-19T13:49:29.687Z,2.80
2022-08-19T13:51:56.028Z,2.88
2022-08-19T13:54:22.378Z,2.83
2022-08-19T13:56:48.836Z,2.80
2022-08-19T13:59:15.686Z,3.20
2022-08-19T14:01:42.460Z,2.70
2022-08-19T14:04:09.480Z,2.55
2022-08-19T14:06:35.797Z,2.50
2022-08-19T14:09:02.131Z,2.80
2022-08-19T14:11:28.943Z,2.75
2022-08-19T14:13:55.255Z,2.97
2022-08-19T14:16:21.596Z,2.85
2022-08-19T14:18:48.686Z,2.40
2022-08-19T14:21:17.656Z,2.88
2022-08-19T14:23:44.598Z,2.80
2022-08-19T14:26:14.023Z,2.80
2022-08-19T14:28:40.881Z,2.58
2022-08-19T14:31:07.327Z,2.72
2022-08-19T14:33:33.660Z,2.53
2022-08-19T14:36:00.128Z,2.80
2022-08-19T14:38:31.406Z,2.47
2022-08-19T14:41:19.206Z,2.47
2022-08-19T14:43:48.669Z,2.35
2022-08-19T14:46:18.001Z,2.33
2022-08-19T14:48:44.463Z,3.00
2022-08-19T14:51:11.053Z,2.30
2022-08-19T14:53:37.631Z,2.63
2022-08-19T14:56:15.585Z,2.35
2022-08-19T14:58:43.814Z,2.95
2022-08-19T15:01:11.663Z,2.35
2022-08-19T15:03:39.422Z,2.42
2022-08-19T15:06:06.325Z,2.40
2022-08-19T15:08:34.142Z,2.72
2022-08-19T15:11:00.570Z,2.03
2022-08-19T15:13:28.466Z,2.20
2022-08-19T15:15:55.504Z,2.25
2022-08-19T15:18:22.231Z,2.30
2022-08-19T15:20:49.556Z,2.60
2022-08-19T15:23:18.547Z,3.83
2022-08-19T15:25:46.103Z,2.63
2022-08-19T15:28:12.543Z,2.40
2022-08-19T15:30:40.264Z,2.28
2022-08-19T15:33:08.175Z,2.00
2022-08-19T15:35:34.557Z,2.38
2022-08-19T15:38:00.859Z,2.50
2022-08-19T15:40:27.587Z,2.58
2022-08-19T15:42:54.075Z,2.03
2022-08-19T15:45:27.458Z,2.25
2022-08-19T15:47:56.087Z,2.40
2022-08-19T15:50:22.605Z,2.40
2022-08-19T15:52:55.137Z,2.08
2022-08-19T15:55:33.673Z,2.15
2022-08-19T15:58:06.542Z,1.90
2022-08-19T16:00:34.223Z,2.35
2022-08-19T16:03:00.782Z,2.13
2022-08-19T16:05:27.285Z,2.00
2022-08-19T16:07:54.373Z,2.42
2022-08-19T16:10:27.234Z,1.77
2022-08-19T16:12:56.074Z,1.90
2022-08-19T16:15:22.964Z,1.85
2022-08-19T16:17:56.382Z,2.22
2022-08-19T16:20:24.205Z,2.35
2022-08-19T16:22:50.644Z,2.28
2022-08-19T16:25:17.455Z,1.73
2022-08-19T16:27:54.288Z,1.70
2022-08-19T16:30:30.165Z,1.52
2022-08-19T16:32:56.492Z,1.75
2022-08-19T16:35:22.902Z,1.48
2022-08-19T16:37:49.233Z,1.70
2022-08-19T16:40:16.169Z,1.73
2022-08-19T16:42:42.551Z,1.70
2022-08-19T16:45:09.416Z,1.77
2022-08-19T16:47:36.319Z,1.75
2022-08-19T16:50:04.123Z,1.70
2022-08-19T16:52:30.449Z,1.45
2022-08-19T16:54:56.781Z,1.60
2022-08-19T16:57:23.286Z,1.63
2022-08-19T16:59:49.766Z,1.83
2022-08-19T17:02:17.784Z,1.90
2022-08-19T17:04:44.142Z,1.42
2022-08-19T17:07:22.328Z,1.60
2022-08-19T17:09:48.720Z,1.50
2022-08-19T17:12:17.157Z,1.70
2022-08-19T17:14:45.602Z,1.90
2022-08-19T17:17:12.076Z,1.80
2022-08-19T17:19:40.063Z,2.05
2022-08-19T17:22:06.383Z,1.40
2022-08-19T17:24:34.100Z,1.70
2022-08-19T17:27:00.399Z,1.60
2022-08-19T17:29:26.968Z,1.40
2022-08-19T17:31:53.374Z,1.80
2022-08-19T17:34:19.676Z,1.60
2022-08-19T17:36:46.005Z,1.80
2022-08-19T17:39:12.307Z,1.60
2022-08-19T17:41:38.625Z,1.60
2022-08-19T17:44:05.390Z,1.67
2022-08-19T17:46:31.987Z,1.90
2022-08-19T17:48:58.390Z,1.50
2022-08-19T17:51:30.682Z,1.42
2022-08-19T17:53:57.023Z,1.50
2022-08-19T17:56:23.803Z,1.60
2022-08-19T17:59:00.145Z,2.00
2022-08-19T18:01:32.021Z,1.60
2022-08-19T18:04:16.252Z,1.77
2022-08-19T18:06:50.281Z,1.50
2022-08-19T18:09:20.734Z,1.38
2022-08-19T18:11:52.609Z,1.40
2022-08-19T18:14:20.479Z,1.40
2022-08-19T18:16:46.806Z,1.45
2022-08-19T18:19:13.114Z,1.60
2022-08-19T18:21:39.448Z,1.92
2022-08-19T18:24:05.939Z,1.55
2022-08-19T18:26:32.239Z,1.83
2022-08-19T18:28:58.563Z,1.92
2022-08-19T18:31:24.902Z,1.50
2022-08-19T18:33:51.214Z,1.52
2022-08-19T18:36:32.064Z,1.70
2022-08-19T18:39:07.907Z,1.65
2022-08-19T18:41:34.865Z,2.15
2022-08-19T18:44:01.620Z,2.03
2022-08-19T18:46:28.004Z,2.03
2022-08-19T18:48:59.534Z,2.15
2022-08-19T18:51:28.416Z,2.22
2022-08-19T18:53:55.258Z,2.38
2022-08-19T18:56:21.591Z,2.30
2022-08-19T18:58:47.911Z,2.80
2022-08-19T19:01:19.999Z,2.85
2022-08-19T19:03:51.761Z,2.88
2022-08-19T19:06:21.649Z,3.55
2022-08-19T19:08:49.403Z,3.70
2022-08-19T19:11:30.018Z,3.00
2022-08-19T19:13:56.785Z,2.80
2022-08-19T19:16:24.643Z,3.35
2022-08-19T19:18:51.512Z,2.92
2022-08-19T19:21:19.573Z,2.80
2022-08-19T19:23:45.897Z,3.78
2022-08-19T19:26:13.584Z,3.10
2022-08-19T19:28:41.216Z,3.53
2022-08-19T19:31:07.623Z,3.20
2022-08-19T19:33:34.054Z,3.10
2022-08-19T19:36:00.362Z,3.38
2022-08-19T19:38:26.688Z,3.25
2022-08-19T19:40:53.032Z,3.13
2022-08-19T19:43:19.366Z,3.15
2022-08-19T19:45:46.708Z,3.30
2022-08-19T19:48:13.060Z,3.30
2022-08-19T19:50:39.380Z,3.17
2022-08-19T19:53:05.691Z,3.28
2022-08-19T19:55:32.289Z,2.88
2022-08-19T19:57:58.596Z,2.83
2022-08-19T20:00:26.066Z,2.65
2022-08-19T20:02:52.462Z,2.90
2022-08-19T20:05:19.979Z,2.75
2022-08-19T20:07:46.451Z,2.85
2022-08-19T20:10:12.911Z,2.83
2022-08-19T20:12:39.254Z,2.78
2022-08-19T20:15:06.590Z,2.78
2022-08-19T20:17:32.916Z,2.97
2022-08-19T20:19:59.236Z,2.97
2022-08-19T20:22:25.753Z,2.95
2022-08-19T20:24:52.085Z,2.92
2022-08-19T20:27:18.503Z,2.97
2022-08-19T20:29:50.520Z,2.55
2022-08-19T20:32:18.409Z,3.00
2022-08-19T20:34:44.720Z,3.30
2022-08-19T20:37:11.034Z,3.00
2022-08-19T20:39:37.745Z,3.08
2022-08-19T20:42:04.283Z,2.90
2022-08-19T20:44:30.591Z,3.05
2022-08-19T20:47:00.488Z,3.20
2022-08-19T20:49:29.504Z,2.45
2022-08-19T20:51:56.614Z,3.13
2022-08-19T20:54:23.944Z,3.13
2022-08-19T20:56:51.852Z,2.95
2022-08-19T20:59:18.854Z,3.10
2022-08-19T21:01:45.486Z,3.13
2022-08-19T21:04:11.933Z,3.25
2022-08-19T21:06:38.285Z,3.00
2022-08-19T21:09:05.003Z,3.15
2022-08-19T21:11:31.696Z,3.25
2022-08-19T21:13:59.332Z,3.33
2022-08-19T21:16:25.851Z,3.10
2022-08-19T21:18:52.304Z,3.28
2022-08-19T21:21:18.633Z,3.33
2022-08-19T21:23:45.175Z,3.80
2022-08-19T21:26:11.483Z,2.95
2022-08-19T21:28:37.906Z,3.40
2022-08-19T21:31:08.661Z,3.10
2022-08-19T21:33:34.988Z,3.00
2022-08-19T21:36:01.379Z,2.88
2022-08-19T21:38:27.832Z,2.85
2022-08-19T21:40:54.809Z,2.80
2022-08-19T21:43:21.543Z,3.47
2022-08-19T21:45:48.120Z,3.00
2022-08-19T21:48:14.813Z,3.03
2022-08-19T21:50:42.716Z,3.22
2022-08-19T21:53:14.014Z,3.38
2022-08-19T21:55:43.988Z,3.00
2022-08-19T21:58:10.288Z,2.95
2022-08-19T22:00:36.666Z,3.50
2022-08-19T22:03:03.943Z,3.33
2022-08-19T22:05:30.297Z,3.22
2022-08-19T22:07:59.225Z,3.67
2022-08-19T22:10:33.953Z,3.05
2022-08-19T22:13:00.310Z,3.55
2022-08-19T22:15:27.551Z,3.08
2022-08-19T22:17:54.050Z,3.00
2022-08-19T22:20:23.900Z,3.55
2022-08-19T22:23:01.916Z,3.10
2022-08-19T22:25:32.297Z,2.85
2022-08-19T22:28:01.847Z,3.28
2022-08-19T22:30:33.844Z,3.47
2022-08-19T22:33:03.742Z,3.45
2022-08-19T22:35:33.449Z,3.35
2022-08-19T22:38:00.878Z,3.08
2022-08-19T22:40:30.842Z,3.30
2022-08-19T22:43:02.448Z,2.95
2022-08-19T22:45:29.561Z,3.20
2022-08-19T22:47:56.623Z,3.35
2022-08-19T22:50:23.607Z,3.55
2022-08-19T22:52:56.534Z,3.50
2022-08-19T22:55:23.385Z,3.38
2022-08-19T22:57:49.780Z,3.45
2022-08-19T23:00:16.308Z,3.88
2022-08-19T23:02:51.577Z,3.30
2022-08-19T23:05:20.849Z,3.50
2022-08-19T23:07:53.589Z,3.53
2022-08-19T23:10:23.222Z,3.05
2022-08-19T23:12:56.080Z,3.33
2022-08-19T23:15:25.040Z,3.42
2022-08-19T23:17:52.996Z,3.58
2022-08-19T23:20:20.401Z,3.20
2022-08-19T23:22:47.951Z,3.40
2022-08-19T23:25:19.680Z,3.08
2022-08-19T23:27:46.180Z,3.53
2022-08-19T23:30:12.730Z,3.60
2022-08-19T23:32:39.048Z,3.05
2022-08-19T23:35:05.705Z,3.55
2022-08-19T23:37:32.279Z,3.63
2022-08-19T23:39:58.638Z,3.22
2022-08-19T23:42:24.965Z,3.60
2022-08-19T23:44:52.816Z,3.53
2022-08-19T23:47:19.825Z,3.33
2022-08-19T23:49:46.168Z,3.38
2022-08-19T23:52:12.508Z,3.05
2022-08-19T23:54:42.781Z,3.38
2022-08-19T23:57:14.157Z,3.65
2022-08-19T23:59:41.798Z,3.35
